createdAt,value
2018-12-14T00:00:11.166Z,-2.90
2018-12-14T00:02:39.545Z,-2.90
2018-12-14T00:05:08.347Z,-3.00
2018-12-14T00:07:36.752Z,-2.90
2018-12-14T00:10:06.713Z,-2.90
2018-12-14T00:12:35.116Z,-2.90
2018-12-14T00:15:04.766Z,-3.00
2018-12-14T00:17:33.223Z,-3.00
2018-12-14T00:20:01.699Z,-3.00
2018-12-14T00:22:31.145Z,-2.90
2018-12-14T00:24:59.449Z,-2.90
2018-12-14T00:30:24.435Z,-2.90
2018-12-14T00:32:53.108Z,-2.90
2018-12-14T00:35:22.552Z,-2.80
2018-12-14T00:37:50.929Z,-2.80
2018-12-14T00:40:19.993Z,-2.90
2018-12-14T00:42:49.010Z,-2.90
2018-12-14T00:45:17.316Z,-3.00
2018-12-14T00:47:45.703Z,-3.00
2018-12-14T00:50:14.066Z,-3.10
2018-12-14T00:52:42.394Z,-3.10
2018-12-14T00:55:10.806Z,-3.00
2018-12-14T00:57:39.442Z,-3.00
2018-12-14T01:00:09.592Z,-3.00
2018-12-14T01:02:39.809Z,-3.00
2018-12-14T01:05:08.301Z,-3.00
2018-12-14T01:07:37.020Z,-2.90
2018-12-14T01:10:06.100Z,-2.90
2018-12-14T01:12:35.293Z,-3.00
2018-12-14T01:15:04.750Z,-3.00
2018-12-14T01:17:33.212Z,-2.90
2018-12-14T01:20:01.572Z,-2.90
2018-12-14T01:22:29.933Z,-3.00
2018-12-14T01:24:58.613Z,-3.00
2018-12-14T01:27:26.897Z,-3.00
2018-12-14T01:29:55.571Z,-2.90
2018-12-14T01:32:24.349Z,-2.90
2018-12-14T01:34:52.668Z,-2.90
2018-12-14T01:37:21.109Z,-2.80
2018-12-14T01:39:49.449Z,-2.80
2018-12-14T01:45:15.285Z,-2.80
2018-12-14T01:47:43.739Z,-2.80
2018-12-14T01:50:17.030Z,-2.70
2018-12-14T01:52:45.631Z,-2.70
2018-12-14T01:55:13.996Z,-2.70
2018-12-14T01:57:42.906Z,-2.80
2018-12-14T02:00:11.313Z,-2.90
2018-12-14T02:02:39.773Z,-2.80
2018-12-14T02:05:08.451Z,-2.80
2018-12-14T02:07:36.853Z,-2.80
2018-12-14T02:10:05.383Z,-2.60
2018-12-14T02:12:33.727Z,-2.70
2018-12-14T02:15:02.037Z,-2.60
2018-12-14T02:17:30.440Z,-2.60
2018-12-14T02:19:58.804Z,-2.60
2018-12-14T02:22:27.448Z,-2.60
2018-12-14T02:24:55.879Z,-2.60
2018-12-14T02:27:24.249Z,-2.60
2018-12-14T02:29:52.713Z,-2.60
2018-12-14T02:32:21.002Z,-2.70
2018-12-14T02:34:49.499Z,-2.70
2018-12-14T02:37:18.016Z,-2.80
2018-12-14T02:39:46.455Z,-2.80
2018-12-14T02:42:19.248Z,-2.90
2018-12-14T02:44:45.084Z,-2.90
2018-12-14T02:47:13.377Z,-2.90
2018-12-14T02:49:41.722Z,-2.90
2018-12-14T02:52:10.880Z,-2.80
2018-12-14T02:54:39.169Z,-2.90
2018-12-14T02:57:08.083Z,-2.80
2018-12-14T02:59:36.378Z,-2.70
2018-12-14T03:02:05.415Z,-2.70
2018-12-14T03:04:33.825Z,-2.60
2018-12-14T03:07:02.274Z,-2.50
2018-12-14T03:09:30.607Z,-2.40
2018-12-14T03:11:59.567Z,-2.40
2018-12-14T03:14:28.939Z,-2.30
2018-12-14T03:16:59.271Z,-2.10
2018-12-14T03:19:28.498Z,-2.00
2018-12-14T03:21:57.385Z,-2.00
2018-12-14T03:24:25.717Z,-2.00
2018-12-14T03:26:54.048Z,-2.00
2018-12-14T03:29:22.485Z,-2.00
2018-12-14T03:31:51.054Z,-2.00
2018-12-14T03:34:19.420Z,-2.00
2018-12-14T03:36:47.831Z,-2.00
2018-12-14T03:39:16.178Z,-2.00
2018-12-14T03:41:44.597Z,-2.10
2018-12-14T03:44:12.914Z,-2.00
2018-12-14T03:46:41.782Z,-1.90
2018-12-14T03:49:10.166Z,-1.90
2018-12-14T03:51:38.552Z,-1.90
2018-12-14T03:54:06.905Z,-1.90
2018-12-14T03:56:35.271Z,-1.90
2018-12-14T03:59:03.663Z,-1.90
2018-12-14T04:01:32.192Z,-1.80
2018-12-14T04:04:00.539Z,-1.90
2018-12-14T04:06:28.976Z,-1.90
2018-12-14T04:08:57.335Z,-1.80
2018-12-14T04:11:26.983Z,-1.80
2018-12-14T04:13:55.391Z,-1.80
2018-12-14T04:16:23.824Z,-1.80
2018-12-14T04:18:52.840Z,-1.90
2018-12-14T04:21:21.626Z,-1.90
2018-12-14T04:23:50.328Z,-2.00
2018-12-14T04:26:18.705Z,-2.10
2018-12-14T04:28:47.044Z,-2.20
2018-12-14T04:31:15.450Z,-2.30
2018-12-14T04:33:43.942Z,-2.40
2018-12-14T04:36:12.293Z,-2.40
2018-12-14T04:38:40.747Z,-2.60
2018-12-14T04:41:09.148Z,-2.70
2018-12-14T04:43:37.470Z,-2.80
2018-12-14T04:46:05.854Z,-2.90
2018-12-14T04:48:34.146Z,-2.80
2018-12-14T04:51:02.705Z,-2.80
2018-12-14T04:53:31.127Z,-2.80
2018-12-14T04:55:59.796Z,-2.80
2018-12-14T04:58:28.213Z,-2.90
2018-12-14T05:00:58.047Z,-2.90
2018-12-14T05:03:26.390Z,-3.00
2018-12-14T05:05:54.722Z,-3.00
2018-12-14T05:08:23.116Z,-3.00
2018-12-14T05:10:51.475Z,-3.00
2018-12-14T05:13:19.793Z,-3.00
2018-12-14T05:15:48.173Z,-3.10
2018-12-14T05:18:16.600Z,-3.00
2018-12-14T05:20:44.902Z,-3.10
2018-12-14T05:23:13.266Z,-3.00
2018-12-14T05:25:41.620Z,-3.00
2018-12-14T05:28:09.996Z,-3.00
2018-12-14T05:30:38.671Z,-2.90
2018-12-14T05:33:07.069Z,-2.90
2018-12-14T05:38:34.800Z,-2.90
2018-12-14T05:41:03.190Z,-2.90
2018-12-14T05:43:31.536Z,-2.90
2018-12-14T05:45:59.978Z,-3.00
2018-12-14T05:48:28.341Z,-3.00
2018-12-14T05:50:56.698Z,-3.00
2018-12-14T05:53:25.234Z,-3.10
2018-12-14T05:55:53.615Z,-3.10
2018-12-14T05:58:22.265Z,-3.20
2018-12-14T06:00:50.677Z,-3.20
2018-12-14T06:03:19.000Z,-3.30
2018-12-14T06:05:47.303Z,-3.30
2018-12-14T06:08:16.707Z,-3.30
2018-12-14T06:10:45.010Z,-3.40
2018-12-14T06:13:13.393Z,-3.40
2018-12-14T06:15:41.831Z,-3.50
2018-12-14T06:18:10.166Z,-3.60
2018-12-14T06:20:38.572Z,-3.50
2018-12-14T06:23:06.916Z,-3.60
2018-12-14T06:25:35.444Z,-3.60
2018-12-14T06:28:03.868Z,-3.60
2018-12-14T06:30:32.264Z,-3.70
2018-12-14T06:33:01.436Z,-3.80
2018-12-14T06:35:30.717Z,-3.80
2018-12-14T06:37:59.076Z,-3.80
2018-12-14T06:40:27.504Z,-3.90
2018-12-14T06:42:55.843Z,-4.00
2018-12-14T06:45:24.314Z,-3.90
2018-12-14T06:47:52.724Z,-4.00
2018-12-14T06:50:21.061Z,-4.00
2018-12-14T06:52:49.982Z,-3.80
2018-12-14T06:55:18.381Z,-3.80
2018-12-14T06:57:46.703Z,-3.80
2018-12-14T07:00:15.043Z,-3.80
2018-12-14T07:02:43.465Z,-3.80
2018-12-14T07:05:12.319Z,-3.80
2018-12-14T07:07:41.677Z,-3.80
2018-12-14T07:10:10.003Z,-3.80
2018-12-14T07:12:38.390Z,-3.80
2018-12-14T07:15:07.783Z,-3.80
2018-12-14T07:17:36.131Z,-3.80
2018-12-14T07:20:05.942Z,-3.80
2018-12-14T07:22:34.326Z,-3.80
2018-12-14T07:25:02.631Z,-3.80
2018-12-14T07:27:31.685Z,-3.80
2018-12-14T07:30:00.032Z,-3.80
2018-12-14T07:32:28.360Z,-3.90
2018-12-14T07:34:56.710Z,-3.80
2018-12-14T07:37:25.066Z,-3.80
2018-12-14T07:39:53.387Z,-3.80
2018-12-14T07:42:21.813Z,-3.80
2018-12-14T07:44:50.385Z,-3.80
2018-12-14T07:50:17.943Z,-3.80
2018-12-14T07:52:46.394Z,-3.70
2018-12-14T07:55:15.538Z,-3.60
2018-12-14T07:57:43.922Z,-3.60
2018-12-14T08:00:12.463Z,-3.50
2018-12-14T08:02:40.966Z,-3.40
2018-12-14T08:05:09.329Z,-3.30
2018-12-14T08:07:37.681Z,-3.20
2018-12-14T08:10:06.576Z,-3.10
2018-12-14T08:12:34.979Z,-2.90
2018-12-14T08:15:03.824Z,-2.80
2018-12-14T08:17:32.199Z,-2.70
2018-12-14T08:20:00.721Z,-2.60
2018-12-14T08:22:29.087Z,-2.60
2018-12-14T08:24:57.459Z,-2.50
2018-12-14T08:27:25.788Z,-2.40
2018-12-14T08:29:54.140Z,-2.30
2018-12-14T08:32:22.541Z,-2.30
2018-12-14T08:34:51.418Z,-2.20
2018-12-14T08:37:20.467Z,-2.10
2018-12-14T08:39:48.767Z,-2.10
2018-12-14T08:42:17.121Z,-2.00
2018-12-14T08:44:46.265Z,-1.90
2018-12-14T08:47:15.104Z,-1.80
2018-12-14T08:49:43.412Z,-1.90
2018-12-14T08:52:11.895Z,-1.80
2018-12-14T08:54:40.317Z,-1.70
2018-12-14T08:57:08.804Z,-1.70
2018-12-14T08:59:37.191Z,-1.60
2018-12-14T09:02:05.662Z,-1.50
2018-12-14T09:04:34.102Z,-1.30
2018-12-14T09:07:02.473Z,-1.20
2018-12-14T09:09:30.899Z,-1.10
2018-12-14T09:11:59.227Z,-1.10
2018-12-14T09:14:28.115Z,-0.90
2018-12-14T09:16:56.503Z,-0.80
2018-12-14T09:19:25.849Z,-0.80
2018-12-14T09:21:54.182Z,-0.70
2018-12-14T09:24:23.376Z,-0.70
2018-12-14T09:26:51.765Z,-0.60
2018-12-14T09:29:20.335Z,-0.60
2018-12-14T09:31:49.041Z,-0.60
2018-12-14T09:34:17.397Z,-0.50
2018-12-14T09:36:46.371Z,-0.40
2018-12-14T09:39:14.759Z,-0.40
2018-12-14T09:41:43.092Z,-0.40
2018-12-14T09:44:11.547Z,-0.50
2018-12-14T09:46:41.767Z,-0.40
2018-12-14T09:49:10.162Z,-0.50
2018-12-14T09:51:38.697Z,-0.60
2018-12-14T09:54:07.055Z,-0.60
2018-12-14T09:56:35.489Z,-0.50
2018-12-14T09:59:03.979Z,-0.30
2018-12-14T10:01:32.396Z,-0.10
2018-12-14T10:04:00.819Z,0.00
2018-12-14T10:06:29.243Z,0.20
2018-12-14T10:08:57.702Z,0.20
2018-12-14T10:11:26.005Z,0.30
2018-12-14T10:14:00.669Z,0.10
2018-12-14T10:16:24.963Z,-0.10
2018-12-14T10:18:54.389Z,-0.10
2018-12-14T10:21:23.915Z,-0.10
2018-12-14T10:23:52.300Z,-0.10
2018-12-14T10:26:20.758Z,-0.10
2018-12-14T10:28:49.138Z,-0.20
2018-12-14T10:31:17.466Z,-0.30
2018-12-14T10:33:45.779Z,-0.30
2018-12-14T10:36:14.173Z,-0.40
2018-12-14T10:38:43.240Z,-0.60
2018-12-14T10:41:12.005Z,-0.60
2018-12-14T10:43:40.349Z,-0.80
2018-12-14T10:46:08.784Z,-0.90
2018-12-14T10:48:37.159Z,-1.00
2018-12-14T10:51:05.600Z,-1.00
2018-12-14T10:53:34.960Z,-1.10
2018-12-14T10:56:03.434Z,-1.00
2018-12-14T10:58:31.743Z,-1.00
2018-12-14T11:03:59.425Z,-1.10
2018-12-14T11:06:28.657Z,-1.10
2018-12-14T11:08:57.166Z,-1.20
2018-12-14T11:11:25.550Z,-1.20
2018-12-14T11:13:54.920Z,-1.10
2018-12-14T11:16:23.326Z,-1.10
2018-12-14T11:18:51.742Z,-1.00
2018-12-14T11:21:20.087Z,-0.90
2018-12-14T11:23:48.556Z,-0.90
2018-12-14T11:26:16.927Z,-0.80
2018-12-14T11:28:45.377Z,-0.70
2018-12-14T11:31:13.852Z,-0.60
2018-12-14T11:33:42.306Z,-0.70
2018-12-14T11:36:10.752Z,-0.60
2018-12-14T11:38:39.125Z,-0.60
2018-12-14T11:41:09.496Z,-0.70
2018-12-14T11:43:37.890Z,-0.70
2018-12-14T11:46:06.181Z,-0.60
2018-12-14T11:48:34.581Z,-0.40
2018-12-14T11:51:02.960Z,-0.50
2018-12-14T11:53:31.421Z,-0.40
2018-12-14T11:55:59.824Z,-0.40
2018-12-14T12:01:25.598Z,-0.50
2018-12-14T12:03:53.942Z,-0.60
2018-12-14T12:06:22.325Z,-0.70
2018-12-14T12:08:51.413Z,-0.70
2018-12-14T12:11:19.792Z,-0.80
2018-12-14T12:13:48.145Z,-0.80
2018-12-14T12:16:16.524Z,-0.80
2018-12-14T12:18:44.844Z,-0.90
2018-12-14T12:21:13.195Z,-0.90
2018-12-14T12:23:41.635Z,-0.90
2018-12-14T12:26:10.051Z,-0.90
2018-12-14T12:28:38.345Z,-0.70
2018-12-14T12:34:04.579Z,-0.60
2018-12-14T12:36:32.896Z,-0.50
2018-12-14T12:39:01.419Z,-0.40
2018-12-14T12:41:29.764Z,-0.40
2018-12-14T12:43:58.104Z,-0.30
2018-12-14T12:46:26.486Z,-0.30
2018-12-14T12:48:55.039Z,-0.30
2018-12-14T12:51:24.215Z,-0.20
2018-12-14T12:53:52.559Z,-0.20
2018-12-14T12:56:21.429Z,-0.20
2018-12-14T12:58:50.043Z,-0.20
2018-12-14T13:01:18.493Z,-0.10
2018-12-14T13:03:46.858Z,-0.20
2018-12-14T13:06:15.212Z,-0.10
2018-12-14T13:08:43.566Z,-0.20
2018-12-14T13:11:12.325Z,-0.30
2018-12-14T13:13:41.107Z,-0.30
2018-12-14T13:16:09.446Z,-0.20
2018-12-14T13:18:38.394Z,-0.20
2018-12-14T13:21:07.735Z,-0.20
2018-12-14T13:23:36.504Z,-0.20
2018-12-14T13:26:05.970Z,-0.20
2018-12-14T13:28:36.723Z,-0.20
2018-12-14T13:31:06.347Z,-0.10
2018-12-14T13:33:35.039Z,-0.20
2018-12-14T13:36:03.660Z,-0.20
2018-12-14T13:38:32.470Z,-0.20
2018-12-14T13:41:00.926Z,-0.20
2018-12-14T13:43:29.549Z,-0.30
2018-12-14T13:45:57.900Z,-0.30
2018-12-14T13:48:26.405Z,-0.30
2018-12-14T13:50:54.849Z,-0.20
2018-12-14T13:53:23.153Z,-0.20
2018-12-14T13:55:51.809Z,-0.20
2018-12-14T13:58:20.567Z,-0.20
2018-12-14T14:00:50.230Z,-0.20
2018-12-14T14:03:18.702Z,-0.20
2018-12-14T14:05:47.396Z,-0.10
2018-12-14T14:08:15.840Z,-0.10
2018-12-14T14:10:44.181Z,0.00
2018-12-14T14:13:12.547Z,0.10
2018-12-14T14:15:40.951Z,0.20
2018-12-14T14:18:09.908Z,0.20
2018-12-14T14:20:38.231Z,0.20
2018-12-14T14:23:06.567Z,0.10
2018-12-14T14:25:35.964Z,0.20
2018-12-14T14:28:05.228Z,0.20
2018-12-14T14:30:35.042Z,0.20
2018-12-14T14:33:03.366Z,0.20
2018-12-14T14:35:32.606Z,0.20
2018-12-14T14:38:01.016Z,0.00
2018-12-14T14:40:29.403Z,0.00
2018-12-14T14:42:57.826Z,-0.10
2018-12-14T14:45:26.192Z,-0.10
2018-12-14T14:47:54.607Z,-0.10
2018-12-14T14:50:22.926Z,-0.10
2018-12-14T14:52:51.365Z,-0.10
2018-12-14T14:55:19.669Z,-0.20
2018-12-14T14:57:48.156Z,-0.10
2018-12-14T15:00:16.781Z,-0.10
2018-12-14T15:02:45.171Z,-0.20
2018-12-14T15:05:13.558Z,-0.30
2018-12-14T15:07:41.884Z,-0.40
2018-12-14T15:10:10.281Z,-0.40
2018-12-14T15:12:39.225Z,-0.40
2018-12-14T15:15:07.815Z,-0.40
2018-12-14T15:17:36.224Z,-0.40
2018-12-14T15:20:05.035Z,-0.40
2018-12-14T15:22:34.304Z,-0.40
2018-12-14T15:25:02.808Z,-0.50
2018-12-14T15:27:31.111Z,-0.50
2018-12-14T15:30:02.169Z,-0.40
2018-12-14T15:32:30.469Z,-0.40
2018-12-14T15:34:59.329Z,-0.30
2018-12-14T15:37:28.659Z,-0.30
2018-12-14T15:39:57.969Z,-0.30
2018-12-14T15:42:26.333Z,-0.20
2018-12-14T15:44:55.350Z,-0.30
2018-12-14T15:47:23.758Z,-0.30
2018-12-14T15:49:52.065Z,-0.30
2018-12-14T15:52:21.982Z,-0.30
2018-12-14T15:54:50.604Z,-0.40
2018-12-14T15:57:19.240Z,-0.40
2018-12-14T15:59:47.681Z,-0.40
2018-12-14T16:02:16.134Z,-0.40
2018-12-14T16:04:45.196Z,-0.40
2018-12-14T16:07:13.694Z,-0.30
2018-12-14T16:09:42.612Z,-0.30
2018-12-14T16:12:10.995Z,-0.40
2018-12-14T16:14:39.452Z,-0.40
2018-12-14T16:17:08.773Z,-0.30
2018-12-14T16:19:37.420Z,-0.30
2018-12-14T16:22:05.821Z,-0.30
2018-12-14T16:24:35.195Z,-0.30
2018-12-14T16:27:04.169Z,-0.30
2018-12-14T16:29:33.062Z,-0.30
2018-12-14T16:32:01.506Z,-0.40
2018-12-14T16:34:29.839Z,-0.40
2018-12-14T16:36:58.232Z,-0.60
2018-12-14T16:39:26.694Z,-0.60
2018-12-14T16:41:55.305Z,-0.60
2018-12-14T16:44:23.697Z,-0.70
2018-12-14T16:46:52.120Z,-0.70
2018-12-14T16:49:20.858Z,-0.70
2018-12-14T16:54:48.346Z,-0.80
2018-12-14T16:57:17.187Z,-0.80
2018-12-14T16:59:45.570Z,-0.80
2018-12-14T17:02:13.894Z,-0.90
2018-12-14T17:04:42.283Z,-0.90
2018-12-14T17:07:10.672Z,-0.90
2018-12-14T17:09:39.045Z,-0.90
2018-12-14T17:12:07.408Z,-0.90
2018-12-14T17:14:35.698Z,-1.00
2018-12-14T17:17:04.190Z,-0.90
2018-12-14T17:19:33.642Z,-0.90
2018-12-14T17:22:02.070Z,-0.90
2018-12-14T17:24:31.133Z,-0.90
2018-12-14T17:26:59.588Z,-0.90
2018-12-14T17:29:29.500Z,-0.90
2018-12-14T17:31:57.886Z,-1.00
2018-12-14T17:34:26.717Z,-1.00
2018-12-14T17:36:55.766Z,-1.00
2018-12-14T17:39:24.192Z,-0.90
2018-12-14T17:41:52.561Z,-1.00
2018-12-14T17:44:20.887Z,-0.90
2018-12-14T17:46:49.375Z,-1.00
2018-12-14T17:49:17.705Z,-1.10
2018-12-14T17:51:46.104Z,-1.00
2018-12-14T17:54:14.432Z,-1.00
2018-12-14T17:56:43.033Z,-1.00
2018-12-14T17:59:11.419Z,-1.10
2018-12-14T18:01:39.909Z,-1.10
2018-12-14T18:04:08.367Z,-1.10
2018-12-14T18:06:36.703Z,-1.10
2018-12-14T18:09:05.356Z,-1.10
2018-12-14T18:11:33.788Z,-1.10
2018-12-14T18:14:02.112Z,-1.10
2018-12-14T18:16:30.948Z,-1.10
2018-12-14T18:18:59.297Z,-1.10
2018-12-14T18:21:27.645Z,-1.10
2018-12-14T18:23:55.973Z,-1.10
2018-12-14T18:26:24.354Z,-1.10
2018-12-14T18:28:52.633Z,-1.10
2018-12-14T18:31:21.042Z,-1.10
2018-12-14T18:33:50.280Z,-1.10
2018-12-14T18:36:18.793Z,-1.10
2018-12-14T18:38:47.154Z,-1.10
2018-12-14T18:41:15.557Z,-1.10
2018-12-14T18:43:46.316Z,-1.20
2018-12-14T18:46:14.784Z,-1.30
2018-12-14T18:48:43.165Z,-1.20
2018-12-14T18:51:11.584Z,-1.20
2018-12-14T18:53:42.113Z,-1.20
2018-12-14T18:56:10.468Z,-1.20
2018-12-14T18:58:39.114Z,-1.10
2018-12-14T19:04:04.713Z,-1.10
2018-12-14T19:06:33.064Z,-1.10
2018-12-14T19:09:01.620Z,-1.10
2018-12-14T19:11:29.994Z,-1.10
2018-12-14T19:13:58.330Z,-1.10
2018-12-14T19:16:26.659Z,-1.10
2018-12-14T19:18:55.105Z,-1.10
2018-12-14T19:21:23.786Z,-1.10
2018-12-14T19:23:52.133Z,-1.10
2018-12-14T19:26:21.094Z,-1.10
2018-12-14T19:28:49.496Z,-1.10
2018-12-14T19:31:18.728Z,-1.10
2018-12-14T19:33:47.086Z,-1.10
2018-12-14T19:36:15.473Z,-1.10
2018-12-14T19:38:43.818Z,-1.10
2018-12-14T19:41:12.267Z,-1.20
2018-12-14T19:43:40.573Z,-1.20
2018-12-14T19:46:08.965Z,-1.20
2018-12-14T19:48:38.223Z,-1.10
2018-12-14T19:51:06.608Z,-1.10
2018-12-14T19:53:35.438Z,-1.10
2018-12-14T19:56:03.969Z,-1.10
2018-12-14T19:58:32.825Z,-1.10
2018-12-14T20:01:01.257Z,-1.10
2018-12-14T20:03:30.172Z,-1.10
2018-12-14T20:05:58.836Z,-1.10
2018-12-14T20:08:27.403Z,-1.10
2018-12-14T20:10:55.934Z,-1.20
2018-12-14T20:13:24.352Z,-1.00
2018-12-14T20:15:57.479Z,-1.00
2018-12-14T20:18:24.312Z,-1.00
2018-12-14T20:20:52.703Z,-1.00
2018-12-14T20:23:21.047Z,-1.10
2018-12-14T20:25:49.390Z,-1.20
2018-12-14T20:28:17.796Z,-1.20
2018-12-14T20:30:46.258Z,-1.10
2018-12-14T20:33:14.906Z,-1.20
2018-12-14T20:35:43.263Z,-1.10
2018-12-14T20:38:11.549Z,-1.20
2018-12-14T20:40:40.999Z,-1.20
2018-12-14T20:43:09.347Z,-1.20
2018-12-14T20:45:37.665Z,-1.20
2018-12-14T20:48:06.081Z,-1.20
2018-12-14T20:53:33.534Z,-1.10
2018-12-14T20:56:01.872Z,-1.20
2018-12-14T20:58:30.289Z,-1.20
2018-12-14T21:00:58.668Z,-1.20
2018-12-14T21:03:27.653Z,-1.20
2018-12-14T21:05:56.730Z,-1.10
2018-12-14T21:08:25.042Z,-1.10
2018-12-14T21:10:53.693Z,-1.00
2018-12-14T21:13:22.388Z,-1.00
2018-12-14T21:15:50.878Z,-1.00
2018-12-14T21:18:19.216Z,-1.00
2018-12-14T21:20:47.895Z,-1.00
2018-12-14T21:23:16.215Z,-1.00
2018-12-14T21:25:44.522Z,-1.00
2018-12-14T21:28:12.919Z,-1.00
2018-12-14T21:30:41.504Z,-1.00
2018-12-14T21:33:09.919Z,-1.00
2018-12-14T21:35:38.613Z,-1.00
2018-12-14T21:38:06.968Z,-1.00
2018-12-14T21:40:35.334Z,-1.00
2018-12-14T21:43:04.415Z,-1.10
2018-12-14T21:45:32.799Z,-1.00
2018-12-14T21:48:01.227Z,-1.10
2018-12-14T21:50:29.686Z,-1.00
2018-12-14T21:52:58.008Z,-1.00
2018-12-14T21:55:26.468Z,-1.00
2018-12-14T21:57:54.970Z,-1.00
2018-12-14T22:00:23.389Z,-1.10
2018-12-14T22:02:51.717Z,-1.00
2018-12-14T22:05:20.470Z,-1.00
2018-12-14T22:07:48.859Z,-1.00
2018-12-14T22:10:17.275Z,-1.00
2018-12-14T22:12:45.629Z,-0.90
2018-12-14T22:15:13.951Z,-0.90
2018-12-14T22:17:43.166Z,-1.00
2018-12-14T22:20:11.820Z,-1.10
2018-12-14T22:22:40.163Z,-1.10
2018-12-14T22:25:08.984Z,-1.20
2018-12-14T22:27:37.309Z,-1.10
2018-12-14T22:30:06.827Z,-1.10
2018-12-14T22:32:35.258Z,-1.10
2018-12-14T22:35:04.303Z,-1.10
2018-12-14T22:37:32.694Z,-1.10
2018-12-14T22:40:01.080Z,-1.00
2018-12-14T22:42:29.465Z,-1.10
2018-12-14T22:44:57.843Z,-1.10
2018-12-14T22:47:26.455Z,-1.00
2018-12-14T22:49:54.843Z,-1.00
2018-12-14T22:52:23.249Z,-1.10
2018-12-14T22:54:51.893Z,-1.10
2018-12-14T22:57:20.194Z,-1.00
2018-12-14T22:59:48.758Z,-1.00
2018-12-14T23:02:17.413Z,-1.00
2018-12-14T23:04:45.940Z,-0.90
2018-12-14T23:07:15.325Z,-0.90
2018-12-14T23:09:44.087Z,-0.90
2018-12-14T23:12:12.418Z,-0.90
2018-12-14T23:14:40.778Z,-0.90
2018-12-14T23:17:09.322Z,-0.90
2018-12-14T23:19:37.866Z,-1.00
2018-12-14T23:22:06.593Z,-0.90
2018-12-14T23:24:34.920Z,-1.00
2018-12-14T23:27:03.351Z,-1.00
2018-12-14T23:29:31.790Z,-0.90
2018-12-14T23:32:00.135Z,-0.90
2018-12-14T23:34:28.505Z,-0.90
2018-12-14T23:36:56.817Z,-0.90
2018-12-14T23:39:25.142Z,-1.00
2018-12-14T23:41:53.485Z,-0.90
2018-12-14T23:44:22.158Z,-0.80
2018-12-14T23:46:50.539Z,-0.80
2018-12-14T23:49:19.292Z,-0.90
2018-12-14T23:51:47.591Z,-1.10
2018-12-14T23:54:16.113Z,-1.10
2018-12-14T23:56:44.705Z,-1.10
2018-12-14T23:59:13.730Z,-1.00
